Al Basrah, Iraq
Current Conditions -  °F | °C
As of 3:00 AM on Wednesday 28 Jan 2015 (Local Time) from ORMM Reporting Station
Haze Haze  
Wind Chill: 59°   Ceiling: Unl
Heat Index: 59°   Visibility: 3mi
Dew Point: 59°   Wind: 9mph
Humidity: 100%   Direction: 80°E
Pressure: 30"   Gusts: NA
Location:  30.5°N, 47.83°E
Report Text: ORMM 280000Z 08008KT 5000 BR NSC 15/15 Q1016 NOSIG
Loading
Personal Weather Stations






























Interactive Weather Map New forecast layout! Learn more

10-Day Weather Forecast

Advertisements
Track Severe Weather on mobile